sensor_id;sensor_type;location;lat;lon;timestamp;P1;durP1;ratioP1;P2;durP2;ratioP2
9102;SDS011;4587;51.434;6.788;2022-11-09T00:01:22;3.97;;;1.73;;
9102;SDS011;4587;51.434;6.788;2022-11-09T00:03:52;2.27;;;1.30;;
9102;SDS011;4587;51.434;6.788;2022-11-09T00:06:19;3.07;;;1.60;;
9102;SDS011;4587;51.434;6.788;2022-11-09T00:08:45;4.47;;;1.60;;
9102;SDS011;4587;51.434;6.788;2022-11-09T00:11:10;2.70;;;1.60;;
9102;SDS011;4587;51.434;6.788;2022-11-09T00:13:36;3.77;;;1.60;;
9102;SDS011;4587;51.434;6.788;2022-11-09T00:16:04;4.27;;;1.33;;
9102;SDS011;4587;51.434;6.788;2022-11-09T00:18:30;3.07;;;1.43;;
9102;SDS011;4587;51.434;6.788;2022-11-09T00:20:56;1.57;;;1.37;;
9102;SDS011;4587;51.434;6.788;2022-11-09T00:23:21;5.07;;;1.67;;
9102;SDS011;4587;51.434;6.788;2022-11-09T00:25:47;2.23;;;1.60;;
9102;SDS011;4587;51.434;6.788;2022-11-09T00:28:13;2.83;;;1.47;;
9102;SDS011;4587;51.434;6.788;2022-11-09T00:30:39;2.50;;;1.47;;
9102;SDS011;4587;51.434;6.788;2022-11-09T00:33:05;4.07;;;1.40;;
9102;SDS011;4587;51.434;6.788;2022-11-09T00:35:31;1.43;;;1.20;;
9102;SDS011;4587;51.434;6.788;2022-11-09T00:37:56;4.00;;;1.63;;
9102;SDS011;4587;51.434;6.788;2022-11-09T00:40:22;3.13;;;1.47;;
9102;SDS011;4587;51.434;6.788;2022-11-09T00:42:47;1.83;;;1.30;;
9102;SDS011;4587;51.434;6.788;2022-11-09T00:45:13;3.67;;;1.50;;
9102;SDS011;4587;51.434;6.788;2022-11-09T00:47:38;1.60;;;1.33;;
9102;SDS011;4587;51.434;6.788;2022-11-09T00:50:04;3.70;;;1.50;;
9102;SDS011;4587;51.434;6.788;2022-11-09T00:52:30;2.30;;;1.40;;
9102;SDS011;4587;51.434;6.788;2022-11-09T00:54:56;2.57;;;1.50;;
9102;SDS011;4587;51.434;6.788;2022-11-09T00:57:21;3.23;;;1.60;;
9102;SDS011;4587;51.434;6.788;2022-11-09T00:59:47;2.47;;;1.43;;
9102;SDS011;4587;51.434;6.788;2022-11-09T01:02:12;2.93;;;1.60;;
9102;SDS011;4587;51.434;6.788;2022-11-09T01:04:38;3.03;;;1.80;;
9102;SDS011;4587;51.434;6.788;2022-11-09T01:07:05;2.63;;;1.20;;
9102;SDS011;4587;51.434;6.788;2022-11-09T01:09:32;2.43;;;1.30;;
9102;SDS011;4587;51.434;6.788;2022-11-09T01:11:57;1.90;;;1.30;;
9102;SDS011;4587;51.434;6.788;2022-11-09T01:14:23;2.47;;;1.40;;
9102;SDS011;4587;51.434;6.788;2022-11-09T01:16:50;2.90;;;1.80;;
9102;SDS011;4587;51.434;6.788;2022-11-09T01:19:16;3.17;;;1.40;;
9102;SDS011;4587;51.434;6.788;2022-11-09T01:21:41;3.17;;;1.50;;
9102;SDS011;4587;51.434;6.788;2022-11-09T01:24:07;2.37;;;1.50;;
9102;SDS011;4587;51.434;6.788;2022-11-09T01:26:33;4.37;;;1.40;;
9102;SDS011;4587;51.434;6.788;2022-11-09T01:28:59;4.80;;;1.83;;
9102;SDS011;4587;51.434;6.788;2022-11-09T01:31:25;2.10;;;1.30;;
9102;SDS011;4587;51.434;6.788;2022-11-09T01:33:50;2.60;;;1.37;;
9102;SDS011;4587;51.434;6.788;2022-11-09T01:36:17;2.67;;;1.33;;
9102;SDS011;4587;51.434;6.788;2022-11-09T01:38:44;2.20;;;1.50;;
9102;SDS011;4587;51.434;6.788;2022-11-09T01:41:14;1.83;;;1.30;;
9102;SDS011;4587;51.434;6.788;2022-11-09T01:43:42;3.03;;;1.47;;
9102;SDS011;4587;51.434;6.788;2022-11-09T01:53:52;1.73;;;1.30;;
9102;SDS011;4587;51.434;6.788;2022-11-09T01:56:25;4.30;;;1.40;;
9102;SDS011;4587;51.434;6.788;2022-11-09T01:58:53;2.87;;;1.40;;
9102;SDS011;4587;51.434;6.788;2022-11-09T02:01:22;2.67;;;1.30;;
9102;SDS011;4587;51.434;6.788;2022-11-09T02:03:56;2.47;;;1.50;;
9102;SDS011;4587;51.434;6.788;2022-11-09T02:06:27;4.47;;;1.50;;
9102;SDS011;4587;51.434;6.788;2022-11-09T02:08:55;3.73;;;1.60;;
9102;SDS011;4587;51.434;6.788;2022-11-09T02:11:29;3.47;;;1.20;;
9102;SDS011;4587;51.434;6.788;2022-11-09T02:13:56;4.47;;;1.50;;
9102;SDS011;4587;51.434;6.788;2022-11-09T02:16:24;5.87;;;1.50;;
9102;SDS011;4587;51.434;6.788;2022-11-09T02:18:55;3.07;;;1.40;;
9102;SDS011;4587;51.434;6.788;2022-11-09T02:21:23;3.83;;;1.57;;
9102;SDS011;4587;51.434;6.788;2022-11-09T02:23:51;2.77;;;1.30;;
9102;SDS011;4587;51.434;6.788;2022-11-09T02:26:40;3.97;;;1.60;;
9102;SDS011;4587;51.434;6.788;2022-11-09T02:29:12;2.60;;;1.40;;
9102;SDS011;4587;51.434;6.788;2022-11-09T02:31:43;4.03;;;1.70;;
9102;SDS011;4587;51.434;6.788;2022-11-09T02:34:12;5.17;;;1.50;;
9102;SDS011;4587;51.434;6.788;2022-11-09T02:36:42;4.27;;;1.57;;
9102;SDS011;4587;51.434;6.788;2022-11-09T02:39:08;5.40;;;1.50;;
9102;SDS011;4587;51.434;6.788;2022-11-09T02:41:35;5.23;;;1.83;;
9102;SDS011;4587;51.434;6.788;2022-11-09T02:44:07;6.03;;;1.70;;
9102;SDS011;4587;51.434;6.788;2022-11-09T02:46:34;4.33;;;1.40;;
9102;SDS011;4587;51.434;6.788;2022-11-09T02:49:01;3.03;;;1.50;;
9102;SDS011;4587;51.434;6.788;2022-11-09T02:51:28;4.87;;;1.70;;
9102;SDS011;4587;51.434;6.788;2022-11-09T02:53:53;5.20;;;1.50;;
9102;SDS011;4587;51.434;6.788;2022-11-09T02:56:19;6.33;;;1.60;;
9102;SDS011;4587;51.434;6.788;2022-11-09T02:58:45;5.40;;;1.70;;
9102;SDS011;4587;51.434;6.788;2022-11-09T03:01:10;4.87;;;1.50;;
9102;SDS011;4587;51.434;6.788;2022-11-09T03:03:39;4.13;;;1.40;;
9102;SDS011;4587;51.434;6.788;2022-11-09T03:06:05;6.23;;;1.60;;
9102;SDS011;4587;51.434;6.788;2022-11-09T03:08:30;4.80;;;1.57;;
9102;SDS011;4587;51.434;6.788;2022-11-09T03:10:58;6.30;;;1.43;;
9102;SDS011;4587;51.434;6.788;2022-11-09T03:13:24;3.63;;;1.73;;
9102;SDS011;4587;51.434;6.788;2022-11-09T03:15:49;6.30;;;1.57;;
9102;SDS011;4587;51.434;6.788;2022-11-09T03:18:15;6.40;;;1.70;;
9102;SDS011;4587;51.434;6.788;2022-11-09T03:20:40;6.60;;;1.90;;
9102;SDS011;4587;51.434;6.788;2022-11-09T03:23:06;5.33;;;1.70;;
9102;SDS011;4587;51.434;6.788;2022-11-09T03:25:32;7.10;;;1.70;;
9102;SDS011;4587;51.434;6.788;2022-11-09T03:27:58;5.20;;;1.70;;
9102;SDS011;4587;51.434;6.788;2022-11-09T03:30:25;3.23;;;1.50;;
9102;SDS011;4587;51.434;6.788;2022-11-09T03:32:56;5.93;;;1.50;;
9102;SDS011;4587;51.434;6.788;2022-11-09T03:35:23;6.73;;;1.57;;
9102;SDS011;4587;51.434;6.788;2022-11-09T03:37:48;4.20;;;1.80;;
9102;SDS011;4587;51.434;6.788;2022-11-09T03:40:14;6.23;;;1.77;;
9102;SDS011;4587;51.434;6.788;2022-11-09T03:42:43;5.80;;;1.83;;
9102;SDS011;4587;51.434;6.788;2022-11-09T03:45:10;4.27;;;1.77;;
9102;SDS011;4587;51.434;6.788;2022-11-09T03:47:39;5.17;;;1.60;;
9102;SDS011;4587;51.434;6.788;2022-11-09T03:50:05;4.40;;;1.40;;
9102;SDS011;4587;51.434;6.788;2022-11-09T03:52:31;3.90;;;1.40;;
9102;SDS011;4587;51.434;6.788;2022-11-09T03:54:57;7.07;;;2.00;;
9102;SDS011;4587;51.434;6.788;2022-11-09T03:57:22;8.47;;;1.80;;
9102;SDS011;4587;51.434;6.788;2022-11-09T03:59:48;6.67;;;1.80;;
9102;SDS011;4587;51.434;6.788;2022-11-09T04:02:13;6.50;;;1.60;;
9102;SDS011;4587;51.434;6.788;2022-11-09T04:04:39;5.17;;;1.43;;
9102;SDS011;4587;51.434;6.788;2022-11-09T04:07:04;6.43;;;1.83;;
9102;SDS011;4587;51.434;6.788;2022-11-09T04:09:30;5.53;;;1.50;;
9102;SDS011;4587;51.434;6.788;2022-11-09T04:11:55;7.50;;;1.80;;
9102;SDS011;4587;51.434;6.788;2022-11-09T04:14:21;4.27;;;1.80;;
9102;SDS011;4587;51.434;6.788;2022-11-09T04:16:46;6.20;;;1.80;;
9102;SDS011;4587;51.434;6.788;2022-11-09T04:19:12;5.47;;;1.77;;
9102;SDS011;4587;51.434;6.788;2022-11-09T04:21:37;5.53;;;1.43;;
9102;SDS011;4587;51.434;6.788;2022-11-09T04:24:03;6.97;;;1.80;;
9102;SDS011;4587;51.434;6.788;2022-11-09T04:26:29;3.80;;;1.80;;
9102;SDS011;4587;51.434;6.788;2022-11-09T04:28:54;6.23;;;1.57;;
9102;SDS011;4587;51.434;6.788;2022-11-09T04:31:20;5.10;;;1.63;;
9102;SDS011;4587;51.434;6.788;2022-11-09T04:33:48;5.70;;;1.73;;
9102;SDS011;4587;51.434;6.788;2022-11-09T04:36:14;9.37;;;1.60;;
9102;SDS011;4587;51.434;6.788;2022-11-09T04:38:40;5.17;;;1.67;;
9102;SDS011;4587;51.434;6.788;2022-11-09T04:41:05;5.20;;;1.57;;
9102;SDS011;4587;51.434;6.788;2022-11-09T04:43:32;5.30;;;1.70;;
9102;SDS011;4587;51.434;6.788;2022-11-09T04:45:59;6.03;;;1.40;;
9102;SDS011;4587;51.434;6.788;2022-11-09T04:48:25;5.10;;;1.57;;
9102;SDS011;4587;51.434;6.788;2022-11-09T04:50:51;6.30;;;1.60;;
9102;SDS011;4587;51.434;6.788;2022-11-09T04:53:17;6.63;;;1.80;;
9102;SDS011;4587;51.434;6.788;2022-11-09T04:55:42;7.07;;;1.60;;
9102;SDS011;4587;51.434;6.788;2022-11-09T04:58:08;5.00;;;2.00;;
9102;SDS011;4587;51.434;6.788;2022-11-09T05:00:34;8.47;;;2.27;;
9102;SDS011;4587;51.434;6.788;2022-11-09T05:03:01;13.67;;;1.90;;
9102;SDS011;4587;51.434;6.788;2022-11-09T05:05:28;4.67;;;1.67;;
9102;SDS011;4587;51.434;6.788;2022-11-09T05:07:54;4.63;;;1.60;;
9102;SDS011;4587;51.434;6.788;2022-11-09T05:10:20;4.73;;;1.60;;
9102;SDS011;4587;51.434;6.788;2022-11-09T05:12:45;4.87;;;1.70;;
9102;SDS011;4587;51.434;6.788;2022-11-09T05:15:11;5.17;;;1.70;;
9102;SDS011;4587;51.434;6.788;2022-11-09T05:17:37;7.87;;;1.80;;
9102;SDS011;4587;51.434;6.788;2022-11-09T05:20:02;4.90;;;1.70;;
9102;SDS011;4587;51.434;6.788;2022-11-09T05:22:28;5.80;;;1.43;;
9102;SDS011;4587;51.434;6.788;2022-11-09T05:25:12;8.63;;;2.07;;
9102;SDS011;4587;51.434;6.788;2022-11-09T05:27:38;9.27;;;1.83;;
9102;SDS011;4587;51.434;6.788;2022-11-09T05:30:04;6.97;;;1.70;;
9102;SDS011;4587;51.434;6.788;2022-11-09T05:32:30;6.77;;;1.90;;
9102;SDS011;4587;51.434;6.788;2022-11-09T05:34:55;5.67;;;1.47;;
9102;SDS011;4587;51.434;6.788;2022-11-09T05:37:21;4.40;;;1.40;;
9102;SDS011;4587;51.434;6.788;2022-11-09T05:39:46;7.47;;;1.80;;
9102;SDS011;4587;51.434;6.788;2022-11-09T05:42:12;6.67;;;2.00;;
9102;SDS011;4587;51.434;6.788;2022-11-09T05:44:38;6.40;;;1.77;;
9102;SDS011;4587;51.434;6.788;2022-11-09T05:47:04;4.43;;;1.57;;
9102;SDS011;4587;51.434;6.788;2022-11-09T05:49:29;7.17;;;1.77;;
9102;SDS011;4587;51.434;6.788;2022-11-09T05:51:55;8.93;;;1.70;;
9102;SDS011;4587;51.434;6.788;2022-11-09T05:54:20;8.87;;;2.03;;
9102;SDS011;4587;51.434;6.788;2022-11-09T05:56:46;7.43;;;1.80;;
9102;SDS011;4587;51.434;6.788;2022-11-09T05:59:11;10.63;;;1.90;;
9102;SDS011;4587;51.434;6.788;2022-11-09T06:01:37;5.87;;;1.60;;
9102;SDS011;4587;51.434;6.788;2022-11-09T06:04:02;9.27;;;1.80;;
9102;SDS011;4587;51.434;6.788;2022-11-09T06:06:28;7.53;;;1.90;;
9102;SDS011;4587;51.434;6.788;2022-11-09T06:08:54;6.47;;;1.77;;
9102;SDS011;4587;51.434;6.788;2022-11-09T06:11:19;6.27;;;1.57;;
9102;SDS011;4587;51.434;6.788;2022-11-09T06:13:45;6.67;;;1.83;;
9102;SDS011;4587;51.434;6.788;2022-11-09T06:16:11;4.20;;;1.83;;
9102;SDS011;4587;51.434;6.788;2022-11-09T06:18:36;5.73;;;1.60;;
9102;SDS011;4587;51.434;6.788;2022-11-09T06:21:02;7.17;;;1.90;;
9102;SDS011;4587;51.434;6.788;2022-11-09T06:23:29;6.03;;;1.80;;
9102;SDS011;4587;51.434;6.788;2022-11-09T06:25:58;3.77;;;2.27;;
9102;SDS011;4587;51.434;6.788;2022-11-09T06:28:26;8.73;;;1.80;;
9102;SDS011;4587;51.434;6.788;2022-11-09T06:30:52;7.03;;;1.90;;
9102;SDS011;4587;51.434;6.788;2022-11-09T06:33:20;5.93;;;1.80;;
9102;SDS011;4587;51.434;6.788;2022-11-09T06:35:46;7.77;;;1.70;;
9102;SDS011;4587;51.434;6.788;2022-11-09T06:38:11;7.47;;;1.73;;
9102;SDS011;4587;51.434;6.788;2022-11-09T06:40:37;9.23;;;2.17;;
9102;SDS011;4587;51.434;6.788;2022-11-09T06:43:04;5.40;;;1.73;;
9102;SDS011;4587;51.434;6.788;2022-11-09T06:45:31;6.63;;;1.63;;
9102;SDS011;4587;51.434;6.788;2022-11-09T06:47:57;6.43;;;1.80;;
9102;SDS011;4587;51.434;6.788;2022-11-09T06:50:24;6.00;;;1.87;;
9102;SDS011;4587;51.434;6.788;2022-11-09T06:52:54;6.07;;;1.70;;
9102;SDS011;4587;51.434;6.788;2022-11-09T06:55:21;7.93;;;1.73;;
9102;SDS011;4587;51.434;6.788;2022-11-09T06:57:47;7.27;;;2.10;;
9102;SDS011;4587;51.434;6.788;2022-11-09T07:00:13;5.17;;;1.50;;
9102;SDS011;4587;51.434;6.788;2022-11-09T07:02:39;5.53;;;1.70;;
9102;SDS011;4587;51.434;6.788;2022-11-09T07:05:06;6.43;;;1.70;;
9102;SDS011;4587;51.434;6.788;2022-11-09T07:07:32;5.70;;;1.80;;
9102;SDS011;4587;51.434;6.788;2022-11-09T07:09:58;6.90;;;1.73;;
9102;SDS011;4587;51.434;6.788;2022-11-09T07:12:23;4.43;;;1.60;;
9102;SDS011;4587;51.434;6.788;2022-11-09T07:14:49;5.90;;;1.70;;
9102;SDS011;4587;51.434;6.788;2022-11-09T07:17:14;5.77;;;1.50;;
9102;SDS011;4587;51.434;6.788;2022-11-09T07:19:40;5.27;;;1.30;;
9102;SDS011;4587;51.434;6.788;2022-11-09T07:22:05;7.10;;;1.90;;
9102;SDS011;4587;51.434;6.788;2022-11-09T07:24:31;7.00;;;1.70;;
9102;SDS011;4587;51.434;6.788;2022-11-09T07:26:56;7.60;;;1.70;;
9102;SDS011;4587;51.434;6.788;2022-11-09T07:29:22;5.83;;;1.67;;
9102;SDS011;4587;51.434;6.788;2022-11-09T07:31:47;5.27;;;1.53;;
9102;SDS011;4587;51.434;6.788;2022-11-09T07:34:13;5.67;;;1.73;;
9102;SDS011;4587;51.434;6.788;2022-11-09T07:36:39;4.83;;;1.30;;
9102;SDS011;4587;51.434;6.788;2022-11-09T07:39:04;7.97;;;1.60;;
9102;SDS011;4587;51.434;6.788;2022-11-09T07:41:30;6.43;;;1.63;;
9102;SDS011;4587;51.434;6.788;2022-11-09T07:43:56;4.37;;;1.50;;
9102;SDS011;4587;51.434;6.788;2022-11-09T07:46:22;6.40;;;2.37;;
9102;SDS011;4587;51.434;6.788;2022-11-09T07:48:47;8.60;;;2.20;;
9102;SDS011;4587;51.434;6.788;2022-11-09T07:51:13;7.60;;;2.17;;
9102;SDS011;4587;51.434;6.788;2022-11-09T07:53:38;7.57;;;2.40;;
9102;SDS011;4587;51.434;6.788;2022-11-09T07:56:04;7.30;;;2.33;;
9102;SDS011;4587;51.434;6.788;2022-11-09T07:58:30;7.07;;;1.83;;
9102;SDS011;4587;51.434;6.788;2022-11-09T08:00:56;7.23;;;1.97;;
9102;SDS011;4587;51.434;6.788;2022-11-09T08:03:22;7.00;;;1.93;;
9102;SDS011;4587;51.434;6.788;2022-11-09T08:05:48;7.17;;;1.90;;
9102;SDS011;4587;51.434;6.788;2022-11-09T08:08:14;4.67;;;1.50;;
9102;SDS011;4587;51.434;6.788;2022-11-09T08:10:40;4.60;;;1.40;;
9102;SDS011;4587;51.434;6.788;2022-11-09T08:13:10;5.83;;;1.30;;
9102;SDS011;4587;51.434;6.788;2022-11-09T08:15:37;4.30;;;1.63;;
9102;SDS011;4587;51.434;6.788;2022-11-09T08:18:05;6.87;;;1.60;;
9102;SDS011;4587;51.434;6.788;2022-11-09T08:20:32;5.13;;;1.60;;
9102;SDS011;4587;51.434;6.788;2022-11-09T08:22:58;5.53;;;1.50;;
9102;SDS011;4587;51.434;6.788;2022-11-09T08:25:24;3.83;;;1.30;;
9102;SDS011;4587;51.434;6.788;2022-11-09T08:27:49;4.47;;;1.37;;
9102;SDS011;4587;51.434;6.788;2022-11-09T08:30:16;3.00;;;1.20;;
9102;SDS011;4587;51.434;6.788;2022-11-09T08:32:44;5.50;;;1.40;;
9102;SDS011;4587;51.434;6.788;2022-11-09T08:35:11;4.63;;;1.50;;
9102;SDS011;4587;51.434;6.788;2022-11-09T08:37:41;6.77;;;1.50;;
9102;SDS011;4587;51.434;6.788;2022-11-09T08:40:07;5.37;;;1.23;;
9102;SDS011;4587;51.434;6.788;2022-11-09T08:42:33;4.00;;;1.30;;
9102;SDS011;4587;51.434;6.788;2022-11-09T08:44:59;4.07;;;1.70;;
9102;SDS011;4587;51.434;6.788;2022-11-09T08:47:25;5.10;;;1.60;;
9102;SDS011;4587;51.434;6.788;2022-11-09T08:49:52;3.53;;;1.27;;
9102;SDS011;4587;51.434;6.788;2022-11-09T08:52:17;7.10;;;1.80;;
9102;SDS011;4587;51.434;6.788;2022-11-09T08:54:43;5.20;;;1.50;;
9102;SDS011;4587;51.434;6.788;2022-11-09T08:57:08;5.20;;;1.57;;
9102;SDS011;4587;51.434;6.788;2022-11-09T08:59:34;6.90;;;1.37;;
9102;SDS011;4587;51.434;6.788;2022-11-09T09:02:00;4.60;;;1.40;;
9102;SDS011;4587;51.434;6.788;2022-11-09T09:04:26;3.93;;;1.50;;
9102;SDS011;4587;51.434;6.788;2022-11-09T09:06:51;3.83;;;1.30;;
9102;SDS011;4587;51.434;6.788;2022-11-09T09:09:17;4.80;;;1.83;;
9102;SDS011;4587;51.434;6.788;2022-11-09T09:11:43;6.27;;;1.60;;
9102;SDS011;4587;51.434;6.788;2022-11-09T09:14:09;5.20;;;1.50;;
9102;SDS011;4587;51.434;6.788;2022-11-09T09:16:34;8.47;;;1.90;;
9102;SDS011;4587;51.434;6.788;2022-11-09T09:19:00;4.40;;;1.20;;
9102;SDS011;4587;51.434;6.788;2022-11-09T09:21:25;6.47;;;1.90;;
9102;SDS011;4587;51.434;6.788;2022-11-09T09:23:51;5.53;;;1.60;;
9102;SDS011;4587;51.434;6.788;2022-11-09T09:26:17;4.90;;;1.70;;
9102;SDS011;4587;51.434;6.788;2022-11-09T09:28:42;6.97;;;1.90;;
9102;SDS011;4587;51.434;6.788;2022-11-09T09:31:08;6.30;;;2.27;;
9102;SDS011;4587;51.434;6.788;2022-11-09T09:33:34;9.40;;;2.50;;
9102;SDS011;4587;51.434;6.788;2022-11-09T09:36:00;5.30;;;2.23;;
9102;SDS011;4587;51.434;6.788;2022-11-09T09:38:26;4.80;;;1.93;;
9102;SDS011;4587;51.434;6.788;2022-11-09T09:40:59;5.67;;;2.50;;
9102;SDS011;4587;51.434;6.788;2022-11-09T09:43:45;5.83;;;2.00;;
9102;SDS011;4587;51.434;6.788;2022-11-09T09:49:15;6.03;;;1.60;;
9102;SDS011;4587;51.434;6.788;2022-11-09T09:52:29;5.03;;;1.70;;
9102;SDS011;4587;51.434;6.788;2022-11-09T09:54:40;7.10;;;2.30;;
9102;SDS011;4587;51.434;6.788;2022-11-09T09:57:12;10.37;;;2.40;;
9102;SDS011;4587;51.434;6.788;2022-11-09T09:59:46;9.10;;;2.60;;
9102;SDS011;4587;51.434;6.788;2022-11-09T10:02:24;7.60;;;2.60;;
9102;SDS011;4587;51.434;6.788;2022-11-09T10:04:55;7.77;;;2.20;;
9102;SDS011;4587;51.434;6.788;2022-11-09T10:07:28;6.30;;;2.70;;
9102;SDS011;4587;51.434;6.788;2022-11-09T10:21:20;11.13;;;3.27;;
9102;SDS011;4587;51.434;6.788;2022-11-09T10:24:13;5.47;;;2.00;;
9102;SDS011;4587;51.434;6.788;2022-11-09T10:26:55;9.20;;;1.80;;
9102;SDS011;4587;51.434;6.788;2022-11-09T10:32:22;8.00;;;3.10;;
9102;SDS011;4587;51.434;6.788;2022-11-09T10:35:02;13.93;;;4.37;;
9102;SDS011;4587;51.434;6.788;2022-11-09T10:42:53;7.37;;;2.00;;
9102;SDS011;4587;51.434;6.788;2022-11-09T10:47:54;8.87;;;2.90;;
9102;SDS011;4587;51.434;6.788;2022-11-09T10:50:30;8.33;;;2.80;;
9102;SDS011;4587;51.434;6.788;2022-11-09T10:53:14;12.23;;;3.43;;
9102;SDS011;4587;51.434;6.788;2022-11-09T11:03:26;9.83;;;2.20;;
9102;SDS011;4587;51.434;6.788;2022-11-09T11:05:56;10.30;;;2.37;;
9102;SDS011;4587;51.434;6.788;2022-11-09T11:08:25;8.73;;;2.27;;
9102;SDS011;4587;51.434;6.788;2022-11-09T11:13:48;10.47;;;1.60;;
9102;SDS011;4587;51.434;6.788;2022-11-09T11:16:27;6.43;;;1.80;;
9102;SDS011;4587;51.434;6.788;2022-11-09T11:18:59;4.30;;;1.30;;
9102;SDS011;4587;51.434;6.788;2022-11-09T11:21:25;5.93;;;1.53;;
9102;SDS011;4587;51.434;6.788;2022-11-09T11:32:29;5.87;;;1.40;;
9102;SDS011;4587;51.434;6.788;2022-11-09T11:34:55;8.07;;;2.10;;
9102;SDS011;4587;51.434;6.788;2022-11-09T11:40:20;9.17;;;1.67;;
9102;SDS011;4587;51.434;6.788;2022-11-09T11:42:57;8.13;;;2.27;;
9102;SDS011;4587;51.434;6.788;2022-11-09T11:45:41;7.93;;;1.97;;
9102;SDS011;4587;51.434;6.788;2022-11-09T11:53:43;6.87;;;2.60;;
9102;SDS011;4587;51.434;6.788;2022-11-09T12:12:49;11.30;;;2.33;;
9102;SDS011;4587;51.434;6.788;2022-11-09T12:15:34;9.37;;;2.20;;
9102;SDS011;4587;51.434;6.788;2022-11-09T12:20:52;7.30;;;1.90;;
9102;SDS011;4587;51.434;6.788;2022-11-09T12:37:01;8.50;;;1.67;;
9102;SDS011;4587;51.434;6.788;2022-11-09T12:42:26;6.40;;;1.67;;
9102;SDS011;4587;51.434;6.788;2022-11-09T12:45:17;6.37;;;1.83;;
9102;SDS011;4587;51.434;6.788;2022-11-09T12:47:54;5.73;;;1.57;;
9102;SDS011;4587;51.434;6.788;2022-11-09T12:50:23;6.90;;;1.40;;
9102;SDS011;4587;51.434;6.788;2022-11-09T12:52:50;5.43;;;1.60;;
9102;SDS011;4587;51.434;6.788;2022-11-09T12:55:26;6.50;;;2.03;;
9102;SDS011;4587;51.434;6.788;2022-11-09T12:57:59;6.30;;;1.83;;
9102;SDS011;4587;51.434;6.788;2022-11-09T13:03:00;7.53;;;1.80;;
9102;SDS011;4587;51.434;6.788;2022-11-09T13:05:32;6.60;;;1.47;;
9102;SDS011;4587;51.434;6.788;2022-11-09T13:08:02;5.07;;;1.43;;
9102;SDS011;4587;51.434;6.788;2022-11-09T13:10:34;10.33;;;2.63;;
9102;SDS011;4587;51.434;6.788;2022-11-09T13:15:37;7.53;;;1.60;;
9102;SDS011;4587;51.434;6.788;2022-11-09T13:18:04;6.53;;;1.67;;
9102;SDS011;4587;51.434;6.788;2022-11-09T13:20:49;10.50;;;1.77;;
9102;SDS011;4587;51.434;6.788;2022-11-09T13:23:23;5.93;;;1.30;;
9102;SDS011;4587;51.434;6.788;2022-11-09T13:25:55;6.83;;;1.77;;
9102;SDS011;4587;51.434;6.788;2022-11-09T13:30:56;10.97;;;1.80;;
9102;SDS011;4587;51.434;6.788;2022-11-09T13:33:28;6.30;;;1.97;;
9102;SDS011;4587;51.434;6.788;2022-11-09T13:35:58;7.40;;;1.80;;
9102;SDS011;4587;51.434;6.788;2022-11-09T13:38:35;5.60;;;2.07;;
9102;SDS011;4587;51.434;6.788;2022-11-09T13:41:01;7.67;;;2.10;;
9102;SDS011;4587;51.434;6.788;2022-11-09T13:43:29;5.57;;;2.00;;
9102;SDS011;4587;51.434;6.788;2022-11-09T13:45:57;6.07;;;1.80;;
9102;SDS011;4587;51.434;6.788;2022-11-09T13:51:13;6.23;;;1.83;;
9102;SDS011;4587;51.434;6.788;2022-11-09T13:59:21;8.97;;;1.73;;
9102;SDS011;4587;51.434;6.788;2022-11-09T14:02:00;5.87;;;1.63;;
9102;SDS011;4587;51.434;6.788;2022-11-09T14:04:29;7.67;;;1.93;;
9102;SDS011;4587;51.434;6.788;2022-11-09T14:20:53;5.23;;;1.30;;
9102;SDS011;4587;51.434;6.788;2022-11-09T14:23:38;5.03;;;1.40;;
9102;SDS011;4587;51.434;6.788;2022-11-09T14:26:08;5.17;;;2.07;;
9102;SDS011;4587;51.434;6.788;2022-11-09T14:28:40;4.97;;;1.60;;
9102;SDS011;4587;51.434;6.788;2022-11-09T14:31:08;9.13;;;1.70;;
9102;SDS011;4587;51.434;6.788;2022-11-09T14:33:56;7.73;;;1.73;;
9102;SDS011;4587;51.434;6.788;2022-11-09T14:36:23;9.67;;;2.13;;
9102;SDS011;4587;51.434;6.788;2022-11-09T14:38:51;7.37;;;1.73;;
9102;SDS011;4587;51.434;6.788;2022-11-09T14:41:20;7.00;;;2.10;;
9102;SDS011;4587;51.434;6.788;2022-11-09T14:43:49;5.70;;;2.00;;
9102;SDS011;4587;51.434;6.788;2022-11-09T14:46:18;7.87;;;1.93;;
9102;SDS011;4587;51.434;6.788;2022-11-09T14:48:51;6.90;;;1.70;;
9102;SDS011;4587;51.434;6.788;2022-11-09T14:51:26;7.83;;;1.70;;
9102;SDS011;4587;51.434;6.788;2022-11-09T14:53:56;5.83;;;1.90;;
9102;SDS011;4587;51.434;6.788;2022-11-09T14:56:23;7.90;;;1.87;;
9102;SDS011;4587;51.434;6.788;2022-11-09T14:58:49;6.57;;;1.80;;
9102;SDS011;4587;51.434;6.788;2022-11-09T15:03:41;6.63;;;1.70;;
9102;SDS011;4587;51.434;6.788;2022-11-09T15:06:27;6.63;;;2.00;;
9102;SDS011;4587;51.434;6.788;2022-11-09T15:08:53;4.50;;;1.47;;
9102;SDS011;4587;51.434;6.788;2022-11-09T15:11:29;9.27;;;2.13;;
9102;SDS011;4587;51.434;6.788;2022-11-09T15:14:09;4.40;;;1.77;;
9102;SDS011;4587;51.434;6.788;2022-11-09T15:16:46;6.03;;;1.60;;
9102;SDS011;4587;51.434;6.788;2022-11-09T15:19:19;7.03;;;1.60;;
9102;SDS011;4587;51.434;6.788;2022-11-09T15:25:18;5.67;;;1.53;;
9102;SDS011;4587;51.434;6.788;2022-11-09T15:30:44;5.27;;;1.10;;
9102;SDS011;4587;51.434;6.788;2022-11-09T15:35:49;6.00;;;1.40;;
9102;SDS011;4587;51.434;6.788;2022-11-09T15:38:27;5.97;;;1.83;;
9102;SDS011;4587;51.434;6.788;2022-11-09T15:40:58;5.43;;;1.27;;
9102;SDS011;4587;51.434;6.788;2022-11-09T15:43:24;4.67;;;1.53;;
9102;SDS011;4587;51.434;6.788;2022-11-09T15:45:51;6.27;;;1.40;;
9102;SDS011;4587;51.434;6.788;2022-11-09T15:48:20;4.37;;;1.33;;
9102;SDS011;4587;51.434;6.788;2022-11-09T15:50:46;4.10;;;1.30;;
9102;SDS011;4587;51.434;6.788;2022-11-09T15:53:12;4.23;;;1.20;;
9102;SDS011;4587;51.434;6.788;2022-11-09T15:55:38;4.87;;;1.20;;
9102;SDS011;4587;51.434;6.788;2022-11-09T15:58:04;6.07;;;1.60;;
9102;SDS011;4587;51.434;6.788;2022-11-09T16:00:30;6.07;;;1.40;;
9102;SDS011;4587;51.434;6.788;2022-11-09T16:02:56;5.07;;;1.37;;
9102;SDS011;4587;51.434;6.788;2022-11-09T16:05:21;6.07;;;1.27;;
9102;SDS011;4587;51.434;6.788;2022-11-09T16:07:50;5.50;;;1.47;;
9102;SDS011;4587;51.434;6.788;2022-11-09T16:10:17;5.40;;;1.40;;
9102;SDS011;4587;51.434;6.788;2022-11-09T16:12:47;4.20;;;1.30;;
9102;SDS011;4587;51.434;6.788;2022-11-09T16:15:17;4.13;;;1.30;;
9102;SDS011;4587;51.434;6.788;2022-11-09T16:17:45;6.80;;;1.50;;
9102;SDS011;4587;51.434;6.788;2022-11-09T16:20:13;5.33;;;1.70;;
9102;SDS011;4587;51.434;6.788;2022-11-09T16:22:39;5.97;;;1.93;;
9102;SDS011;4587;51.434;6.788;2022-11-09T16:25:04;8.43;;;2.40;;
9102;SDS011;4587;51.434;6.788;2022-11-09T16:27:30;5.40;;;2.43;;
9102;SDS011;4587;51.434;6.788;2022-11-09T16:29:57;7.10;;;3.27;;
9102;SDS011;4587;51.434;6.788;2022-11-09T16:32:22;12.73;;;3.47;;
9102;SDS011;4587;51.434;6.788;2022-11-09T16:34:48;8.17;;;3.57;;
9102;SDS011;4587;51.434;6.788;2022-11-09T16:37:13;11.53;;;4.33;;
9102;SDS011;4587;51.434;6.788;2022-11-09T16:39:39;11.30;;;3.87;;
9102;SDS011;4587;51.434;6.788;2022-11-09T16:42:05;7.37;;;2.83;;
9102;SDS011;4587;51.434;6.788;2022-11-09T16:44:33;8.33;;;2.57;;
9102;SDS011;4587;51.434;6.788;2022-11-09T16:47:01;9.67;;;2.80;;
9102;SDS011;4587;51.434;6.788;2022-11-09T16:49:28;10.37;;;2.60;;
9102;SDS011;4587;51.434;6.788;2022-11-09T16:51:55;11.27;;;2.50;;
9102;SDS011;4587;51.434;6.788;2022-11-09T16:54:21;8.00;;;2.37;;
9102;SDS011;4587;51.434;6.788;2022-11-09T16:56:47;8.70;;;2.50;;
9102;SDS011;4587;51.434;6.788;2022-11-09T16:59:12;10.73;;;2.57;;
9102;SDS011;4587;51.434;6.788;2022-11-09T17:01:39;10.43;;;2.37;;
9102;SDS011;4587;51.434;6.788;2022-11-09T17:04:04;7.00;;;2.63;;
9102;SDS011;4587;51.434;6.788;2022-11-09T17:06:33;8.47;;;2.57;;
9102;SDS011;4587;51.434;6.788;2022-11-09T17:09:00;9.03;;;3.50;;
9102;SDS011;4587;51.434;6.788;2022-11-09T17:11:25;14.60;;;3.40;;
9102;SDS011;4587;51.434;6.788;2022-11-09T17:13:54;9.77;;;3.37;;
9102;SDS011;4587;51.434;6.788;2022-11-09T17:16:20;7.53;;;2.90;;
9102;SDS011;4587;51.434;6.788;2022-11-09T17:18:46;10.17;;;2.73;;
9102;SDS011;4587;51.434;6.788;2022-11-09T17:21:12;7.37;;;2.87;;
9102;SDS011;4587;51.434;6.788;2022-11-09T17:23:38;8.17;;;3.00;;
9102;SDS011;4587;51.434;6.788;2022-11-09T17:26:05;8.00;;;2.90;;
9102;SDS011;4587;51.434;6.788;2022-11-09T17:28:33;9.67;;;2.67;;
9102;SDS011;4587;51.434;6.788;2022-11-09T17:30:59;5.20;;;2.00;;
9102;SDS011;4587;51.434;6.788;2022-11-09T17:33:30;7.87;;;2.23;;
9102;SDS011;4587;51.434;6.788;2022-11-09T17:35:56;6.93;;;2.30;;
9102;SDS011;4587;51.434;6.788;2022-11-09T17:38:23;7.60;;;2.17;;